sensor_id;sensor_type;location;lat;lon;timestamp;temperature;humidity
20045;DHT22;10183;47.808;9.476;2023-08-06T00:00:49;13.50;99.90
20045;DHT22;10183;47.808;9.476;2023-08-06T00:03:15;13.50;99.90
20045;DHT22;10183;47.808;9.476;2023-08-06T00:05:42;13.40;99.90
20045;DHT22;10183;47.808;9.476;2023-08-06T00:08:09;13.50;99.90
20045;DHT22;10183;47.808;9.476;2023-08-06T00:10:35;13.40;99.90
20045;DHT22;10183;47.808;9.476;2023-08-06T00:13:01;13.40;99.90
20045;DHT22;10183;47.808;9.476;2023-08-06T00:15:27;13.50;99.90
20045;DHT22;10183;47.808;9.476;2023-08-06T00:17:53;13.40;99.90
20045;DHT22;10183;47.808;9.476;2023-08-06T00:20:20;13.40;99.90
20045;DHT22;10183;47.808;9.476;2023-08-06T00:22:46;13.40;99.90
20045;DHT22;10183;47.808;9.476;2023-08-06T00:25:12;13.40;99.90
20045;DHT22;10183;47.808;9.476;2023-08-06T00:27:39;13.40;99.90
20045;DHT22;10183;47.808;9.476;2023-08-06T00:30:05;13.40;99.90
20045;DHT22;10183;47.808;9.476;2023-08-06T00:32:32;13.20;99.90
20045;DHT22;10183;47.808;9.476;2023-08-06T00:34:58;13.20;99.90
20045;DHT22;10183;47.808;9.476;2023-08-06T00:37:24;13.10;99.90
20045;DHT22;10183;47.808;9.476;2023-08-06T00:39:50;13.00;99.90
20045;DHT22;10183;47.808;9.476;2023-08-06T00:42:16;13.00;99.90
20045;DHT22;10183;47.808;9.476;2023-08-06T00:44:46;12.90;99.90
20045;DHT22;10183;47.808;9.476;2023-08-06T00:47:13;12.90;99.90
20045;DHT22;10183;47.808;9.476;2023-08-06T00:49:39;12.90;99.90
20045;DHT22;10183;47.808;9.476;2023-08-06T00:52:07;12.90;99.90
20045;DHT22;10183;47.808;9.476;2023-08-06T00:54:35;12.70;99.90
20045;DHT22;10183;47.808;9.476;2023-08-06T00:57:01;12.70;99.90
20045;DHT22;10183;47.808;9.476;2023-08-06T00:59:30;12.70;99.90
20045;DHT22;10183;47.808;9.476;2023-08-06T01:01:56;12.60;99.90
20045;DHT22;10183;47.808;9.476;2023-08-06T01:04:23;12.60;99.90
20045;DHT22;10183;47.808;9.476;2023-08-06T01:09:37;12.60;99.90
20045;DHT22;10183;47.808;9.476;2023-08-06T01:17:32;12.50;99.90
20045;DHT22;10183;47.808;9.476;2023-08-06T01:19:58;12.40;99.90
20045;DHT22;10183;47.808;9.476;2023-08-06T01:22:24;12.30;99.90
20045;DHT22;10183;47.808;9.476;2023-08-06T01:24:51;12.30;99.90
20045;DHT22;10183;47.808;9.476;2023-08-06T01:30:07;12.30;99.90
20045;DHT22;10183;47.808;9.476;2023-08-06T01:32:40;12.20;99.90
20045;DHT22;10183;47.808;9.476;2023-08-06T01:35:10;12.10;99.90
20045;DHT22;10183;47.808;9.476;2023-08-06T01:37:38;12.00;99.90
20045;DHT22;10183;47.808;9.476;2023-08-06T01:40:11;12.00;99.90
20045;DHT22;10183;47.808;9.476;2023-08-06T01:42:40;12.00;99.90
20045;DHT22;10183;47.808;9.476;2023-08-06T01:45:07;12.00;99.90
20045;DHT22;10183;47.808;9.476;2023-08-06T01:47:34;12.00;99.90
20045;DHT22;10183;47.808;9.476;2023-08-06T01:50:00;12.00;99.90
20045;DHT22;10183;47.808;9.476;2023-08-06T01:52:27;12.00;99.90
20045;DHT22;10183;47.808;9.476;2023-08-06T01:54:54;11.90;99.90
20045;DHT22;10183;47.808;9.476;2023-08-06T01:57:21;11.90;99.90
20045;DHT22;10183;47.808;9.476;2023-08-06T01:59:47;11.80;99.90
20045;DHT22;10183;47.808;9.476;2023-08-06T02:02:13;11.70;99.90
20045;DHT22;10183;47.808;9.476;2023-08-06T02:04:39;11.70;99.90
20045;DHT22;10183;47.808;9.476;2023-08-06T02:07:06;11.70;99.90
20045;DHT22;10183;47.808;9.476;2023-08-06T02:09:32;11.70;99.90
20045;DHT22;10183;47.808;9.476;2023-08-06T02:11:58;11.70;99.90
20045;DHT22;10183;47.808;9.476;2023-08-06T02:14:24;11.70;99.90
20045;DHT22;10183;47.808;9.476;2023-08-06T02:16:51;11.60;99.90
20045;DHT22;10183;47.808;9.476;2023-08-06T02:19:17;11.60;99.90
20045;DHT22;10183;47.808;9.476;2023-08-06T02:21:43;11.50;99.90
20045;DHT22;10183;47.808;9.476;2023-08-06T02:24:09;11.50;99.90
20045;DHT22;10183;47.808;9.476;2023-08-06T02:26:35;11.70;99.90
20045;DHT22;10183;47.808;9.476;2023-08-06T02:29:01;11.80;99.90
20045;DHT22;10183;47.808;9.476;2023-08-06T02:31:28;11.90;99.90
20045;DHT22;10183;47.808;9.476;2023-08-06T02:33:54;12.00;99.90
20045;DHT22;10183;47.808;9.476;2023-08-06T02:36:20;12.10;99.90
20045;DHT22;10183;47.808;9.476;2023-08-06T02:38:47;12.10;99.90
20045;DHT22;10183;47.808;9.476;2023-08-06T02:41:13;12.10;99.90
20045;DHT22;10183;47.808;9.476;2023-08-06T02:43:39;12.00;99.90
20045;DHT22;10183;47.808;9.476;2023-08-06T02:46:05;12.00;99.90
20045;DHT22;10183;47.808;9.476;2023-08-06T02:48:31;11.90;99.90
20045;DHT22;10183;47.808;9.476;2023-08-06T02:50:58;11.90;99.90
20045;DHT22;10183;47.808;9.476;2023-08-06T02:53:27;12.00;99.90
20045;DHT22;10183;47.808;9.476;2023-08-06T02:55:53;11.90;99.90
20045;DHT22;10183;47.808;9.476;2023-08-06T02:58:20;11.90;99.90
20045;DHT22;10183;47.808;9.476;2023-08-06T03:01:04;11.90;99.90
20045;DHT22;10183;47.808;9.476;2023-08-06T03:03:31;12.00;99.90
20045;DHT22;10183;47.808;9.476;2023-08-06T03:05:58;12.00;99.90
20045;DHT22;10183;47.808;9.476;2023-08-06T03:08:24;12.10;99.90
20045;DHT22;10183;47.808;9.476;2023-08-06T03:10:51;12.10;99.90
20045;DHT22;10183;47.808;9.476;2023-08-06T03:13:18;12.30;99.90
20045;DHT22;10183;47.808;9.476;2023-08-06T03:15:52;12.30;99.90
20045;DHT22;10183;47.808;9.476;2023-08-06T03:18:19;12.20;99.90
20045;DHT22;10183;47.808;9.476;2023-08-06T03:20:45;12.30;99.90
20045;DHT22;10183;47.808;9.476;2023-08-06T03:23:11;12.20;99.90
20045;DHT22;10183;47.808;9.476;2023-08-06T03:25:37;12.20;99.90
20045;DHT22;10183;47.808;9.476;2023-08-06T03:28:03;12.20;99.90
20045;DHT22;10183;47.808;9.476;2023-08-06T03:30:29;12.10;99.90
20045;DHT22;10183;47.808;9.476;2023-08-06T03:32:56;12.20;99.90
20045;DHT22;10183;47.808;9.476;2023-08-06T03:35:22;12.20;99.90
20045;DHT22;10183;47.808;9.476;2023-08-06T03:37:48;12.10;99.90
20045;DHT22;10183;47.808;9.476;2023-08-06T03:40:15;12.10;99.90
20045;DHT22;10183;47.808;9.476;2023-08-06T03:42:41;12.00;99.90
20045;DHT22;10183;47.808;9.476;2023-08-06T03:45:08;11.90;99.90
20045;DHT22;10183;47.808;9.476;2023-08-06T03:47:35;12.00;99.90
20045;DHT22;10183;47.808;9.476;2023-08-06T03:50:01;11.80;99.90
20045;DHT22;10183;47.808;9.476;2023-08-06T03:52:27;11.80;99.90
20045;DHT22;10183;47.808;9.476;2023-08-06T03:54:53;11.80;99.90
20045;DHT22;10183;47.808;9.476;2023-08-06T03:57:19;11.90;99.90
20045;DHT22;10183;47.808;9.476;2023-08-06T03:59:45;11.90;99.90
20045;DHT22;10183;47.808;9.476;2023-08-06T04:02:11;11.90;99.90
20045;DHT22;10183;47.808;9.476;2023-08-06T04:04:37;12.00;99.90
20045;DHT22;10183;47.808;9.476;2023-08-06T04:07:04;12.00;99.90
20045;DHT22;10183;47.808;9.476;2023-08-06T04:09:30;12.00;99.90
20045;DHT22;10183;47.808;9.476;2023-08-06T04:11:56;12.10;99.90
20045;DHT22;10183;47.808;9.476;2023-08-06T04:14:26;12.10;99.90
20045;DHT22;10183;47.808;9.476;2023-08-06T04:16:52;12.00;99.90
20045;DHT22;10183;47.808;9.476;2023-08-06T04:19:18;12.10;99.90
20045;DHT22;10183;47.808;9.476;2023-08-06T04:21:44;12.10;99.90
20045;DHT22;10183;47.808;9.476;2023-08-06T04:24:10;12.10;99.90
20045;DHT22;10183;47.808;9.476;2023-08-06T04:26:36;12.10;99.90
20045;DHT22;10183;47.808;9.476;2023-08-06T04:29:03;12.10;99.90
20045;DHT22;10183;47.808;9.476;2023-08-06T04:31:29;12.10;99.90
20045;DHT22;10183;47.808;9.476;2023-08-06T04:33:55;12.10;99.90
20045;DHT22;10183;47.808;9.476;2023-08-06T04:36:21;12.20;99.90
20045;DHT22;10183;47.808;9.476;2023-08-06T04:38:47;12.20;99.90
20045;DHT22;10183;47.808;9.476;2023-08-06T04:41:14;12.20;99.90
20045;DHT22;10183;47.808;9.476;2023-08-06T04:43:40;12.30;99.90
20045;DHT22;10183;47.808;9.476;2023-08-06T04:46:06;12.30;99.90
20045;DHT22;10183;47.808;9.476;2023-08-06T04:48:33;12.20;99.90
20045;DHT22;10183;47.808;9.476;2023-08-06T04:50:59;12.30;99.90
20045;DHT22;10183;47.808;9.476;2023-08-06T04:53:25;12.20;99.90
20045;DHT22;10183;47.808;9.476;2023-08-06T04:55:52;12.20;99.90
20045;DHT22;10183;47.808;9.476;2023-08-06T04:58:18;12.20;99.90
20045;DHT22;10183;47.808;9.476;2023-08-06T05:00:44;12.20;99.90
20045;DHT22;10183;47.808;9.476;2023-08-06T05:03:10;12.20;99.90
20045;DHT22;10183;47.808;9.476;2023-08-06T05:05:36;12.20;99.90
20045;DHT22;10183;47.808;9.476;2023-08-06T05:08:02;12.30;99.90
20045;DHT22;10183;47.808;9.476;2023-08-06T05:10:29;12.20;99.90
20045;DHT22;10183;47.808;9.476;2023-08-06T05:12:55;12.20;99.90
20045;DHT22;10183;47.808;9.476;2023-08-06T05:15:21;12.20;99.90
20045;DHT22;10183;47.808;9.476;2023-08-06T05:17:47;12.20;99.90
20045;DHT22;10183;47.808;9.476;2023-08-06T05:20:13;12.30;99.90
20045;DHT22;10183;47.808;9.476;2023-08-06T05:22:40;12.30;99.90
20045;DHT22;10183;47.808;9.476;2023-08-06T05:25:07;12.30;99.90
20045;DHT22;10183;47.808;9.476;2023-08-06T05:27:33;12.30;99.90
20045;DHT22;10183;47.808;9.476;2023-08-06T05:29:59;12.20;99.90
20045;DHT22;10183;47.808;9.476;2023-08-06T05:32:25;12.30;99.90
20045;DHT22;10183;47.808;9.476;2023-08-06T05:34:51;12.20;99.90
20045;DHT22;10183;47.808;9.476;2023-08-06T05:37:17;12.20;99.90
20045;DHT22;10183;47.808;9.476;2023-08-06T05:39:44;12.20;99.90
20045;DHT22;10183;47.808;9.476;2023-08-06T05:42:10;12.20;99.90
20045;DHT22;10183;47.808;9.476;2023-08-06T05:44:36;12.20;99.90
20045;DHT22;10183;47.808;9.476;2023-08-06T05:47:02;12.20;99.90
20045;DHT22;10183;47.808;9.476;2023-08-06T05:49:28;12.20;99.90
20045;DHT22;10183;47.808;9.476;2023-08-06T05:51:55;12.20;99.90
20045;DHT22;10183;47.808;9.476;2023-08-06T05:54:21;12.20;99.90
20045;DHT22;10183;47.808;9.476;2023-08-06T05:56:47;12.20;99.90
20045;DHT22;10183;47.808;9.476;2023-08-06T05:59:13;12.30;99.90
20045;DHT22;10183;47.808;9.476;2023-08-06T06:01:39;12.30;99.90
20045;DHT22;10183;47.808;9.476;2023-08-06T06:04:05;12.30;99.90
20045;DHT22;10183;47.808;9.476;2023-08-06T06:06:31;12.40;99.90
20045;DHT22;10183;47.808;9.476;2023-08-06T06:08:58;12.40;99.90
20045;DHT22;10183;47.808;9.476;2023-08-06T06:11:24;12.30;99.90
20045;DHT22;10183;47.808;9.476;2023-08-06T06:13:51;12.30;99.90
20045;DHT22;10183;47.808;9.476;2023-08-06T06:16:17;12.20;99.90
20045;DHT22;10183;47.808;9.476;2023-08-06T06:18:43;12.10;99.90
20045;DHT22;10183;47.808;9.476;2023-08-06T06:21:10;12.10;99.90
20045;DHT22;10183;47.808;9.476;2023-08-06T06:23:36;12.20;99.90
20045;DHT22;10183;47.808;9.476;2023-08-06T06:26:03;12.40;99.90
20045;DHT22;10183;47.808;9.476;2023-08-06T06:28:29;12.30;99.90
20045;DHT22;10183;47.808;9.476;2023-08-06T06:31:00;12.30;99.90
20045;DHT22;10183;47.808;9.476;2023-08-06T06:33:27;12.30;99.90
20045;DHT22;10183;47.808;9.476;2023-08-06T06:35:53;12.30;99.90
20045;DHT22;10183;47.808;9.476;2023-08-06T06:38:19;12.20;99.90
20045;DHT22;10183;47.808;9.476;2023-08-06T06:40:54;12.20;99.90
20045;DHT22;10183;47.808;9.476;2023-08-06T06:43:20;12.10;99.90
20045;DHT22;10183;47.808;9.476;2023-08-06T06:45:47;12.20;99.90
20045;DHT22;10183;47.808;9.476;2023-08-06T06:48:13;12.20;99.90
20045;DHT22;10183;47.808;9.476;2023-08-06T06:50:39;12.20;99.90
20045;DHT22;10183;47.808;9.476;2023-08-06T06:53:05;12.30;99.90
20045;DHT22;10183;47.808;9.476;2023-08-06T06:55:31;12.60;99.90
20045;DHT22;10183;47.808;9.476;2023-08-06T06:57:58;12.50;99.90
20045;DHT22;10183;47.808;9.476;2023-08-06T07:00:24;12.20;99.90
20045;DHT22;10183;47.808;9.476;2023-08-06T07:02:50;12.10;99.90
20045;DHT22;10183;47.808;9.476;2023-08-06T07:05:16;12.10;99.90
20045;DHT22;10183;47.808;9.476;2023-08-06T07:07:42;12.10;99.90
20045;DHT22;10183;47.808;9.476;2023-08-06T07:10:09;12.10;99.90
20045;DHT22;10183;47.808;9.476;2023-08-06T07:12:35;12.10;99.90
20045;DHT22;10183;47.808;9.476;2023-08-06T07:15:05;12.10;99.90
20045;DHT22;10183;47.808;9.476;2023-08-06T07:17:32;12.00;99.90
20045;DHT22;10183;47.808;9.476;2023-08-06T07:19:58;12.10;99.90
20045;DHT22;10183;47.808;9.476;2023-08-06T07:22:24;12.10;99.90
20045;DHT22;10183;47.808;9.476;2023-08-06T07:24:50;12.20;99.90
20045;DHT22;10183;47.808;9.476;2023-08-06T07:27:16;12.20;99.90
20045;DHT22;10183;47.808;9.476;2023-08-06T07:29:42;11.90;99.90
20045;DHT22;10183;47.808;9.476;2023-08-06T07:32:09;11.80;99.90
20045;DHT22;10183;47.808;9.476;2023-08-06T07:34:35;11.70;99.90
20045;DHT22;10183;47.808;9.476;2023-08-06T07:37:04;11.70;99.90
20045;DHT22;10183;47.808;9.476;2023-08-06T07:39:30;11.60;99.90
20045;DHT22;10183;47.808;9.476;2023-08-06T07:41:56;11.70;99.90
20045;DHT22;10183;47.808;9.476;2023-08-06T07:44:22;11.60;99.90
20045;DHT22;10183;47.808;9.476;2023-08-06T07:46:49;11.50;99.90
20045;DHT22;10183;47.808;9.476;2023-08-06T07:49:16;11.60;99.90
20045;DHT22;10183;47.808;9.476;2023-08-06T07:51:42;11.50;99.90
20045;DHT22;10183;47.808;9.476;2023-08-06T07:54:08;11.50;99.90
20045;DHT22;10183;47.808;9.476;2023-08-06T07:56:34;11.40;99.90
20045;DHT22;10183;47.808;9.476;2023-08-06T07:59:02;11.40;99.90
20045;DHT22;10183;47.808;9.476;2023-08-06T08:01:29;11.40;99.90
20045;DHT22;10183;47.808;9.476;2023-08-06T08:03:55;11.40;99.90
20045;DHT22;10183;47.808;9.476;2023-08-06T08:06:21;11.40;99.90
20045;DHT22;10183;47.808;9.476;2023-08-06T08:08:49;11.40;99.90
20045;DHT22;10183;47.808;9.476;2023-08-06T08:11:15;11.40;99.90
20045;DHT22;10183;47.808;9.476;2023-08-06T08:13:42;11.30;99.90
20045;DHT22;10183;47.808;9.476;2023-08-06T08:16:08;11.40;99.90
20045;DHT22;10183;47.808;9.476;2023-08-06T08:18:34;11.50;99.90
20045;DHT22;10183;47.808;9.476;2023-08-06T08:21:00;11.50;99.90
20045;DHT22;10183;47.808;9.476;2023-08-06T08:23:26;11.60;99.90
20045;DHT22;10183;47.808;9.476;2023-08-06T08:25:53;11.80;99.90
20045;DHT22;10183;47.808;9.476;2023-08-06T08:28:19;11.80;99.90
20045;DHT22;10183;47.808;9.476;2023-08-06T08:30:45;11.70;99.90
20045;DHT22;10183;47.808;9.476;2023-08-06T08:33:11;11.80;99.90
20045;DHT22;10183;47.808;9.476;2023-08-06T08:35:37;11.70;99.90
20045;DHT22;10183;47.808;9.476;2023-08-06T08:38:04;11.70;99.90
20045;DHT22;10183;47.808;9.476;2023-08-06T08:40:46;11.70;99.90
20045;DHT22;10183;47.808;9.476;2023-08-06T08:43:20;11.60;99.90
20045;DHT22;10183;47.808;9.476;2023-08-06T08:45:50;11.60;99.90
20045;DHT22;10183;47.808;9.476;2023-08-06T08:48:17;11.60;99.90
20045;DHT22;10183;47.808;9.476;2023-08-06T08:50:45;11.60;99.90
20045;DHT22;10183;47.808;9.476;2023-08-06T08:53:11;11.70;99.90
20045;DHT22;10183;47.808;9.476;2023-08-06T08:55:39;11.70;99.90
20045;DHT22;10183;47.808;9.476;2023-08-06T08:58:06;11.70;99.90
20045;DHT22;10183;47.808;9.476;2023-08-06T09:00:33;11.60;99.90
20045;DHT22;10183;47.808;9.476;2023-08-06T09:03:00;11.60;99.90
20045;DHT22;10183;47.808;9.476;2023-08-06T09:05:29;11.70;99.90
20045;DHT22;10183;47.808;9.476;2023-08-06T09:08:02;11.80;99.90
20045;DHT22;10183;47.808;9.476;2023-08-06T09:10:29;11.70;99.90
20045;DHT22;10183;47.808;9.476;2023-08-06T09:12:59;11.70;99.90
20045;DHT22;10183;47.808;9.476;2023-08-06T09:15:27;11.70;99.90
20045;DHT22;10183;47.808;9.476;2023-08-06T09:17:54;11.60;99.90
20045;DHT22;10183;47.808;9.476;2023-08-06T09:20:21;11.60;99.90
20045;DHT22;10183;47.808;9.476;2023-08-06T09:22:47;11.60;99.90
20045;DHT22;10183;47.808;9.476;2023-08-06T09:25:24;11.60;99.90
20045;DHT22;10183;47.808;9.476;2023-08-06T09:27:52;11.60;99.90
20045;DHT22;10183;47.808;9.476;2023-08-06T09:30:35;11.60;99.90
20045;DHT22;10183;47.808;9.476;2023-08-06T09:33:02;11.60;99.90
20045;DHT22;10183;47.808;9.476;2023-08-06T09:35:31;11.70;99.90
20045;DHT22;10183;47.808;9.476;2023-08-06T09:38:08;11.60;99.90
20045;DHT22;10183;47.808;9.476;2023-08-06T09:40:37;11.60;99.90
20045;DHT22;10183;47.808;9.476;2023-08-06T09:43:03;11.60;99.90
20045;DHT22;10183;47.808;9.476;2023-08-06T09:45:32;11.50;99.90
20045;DHT22;10183;47.808;9.476;2023-08-06T09:48:00;11.50;99.90
20045;DHT22;10183;47.808;9.476;2023-08-06T09:50:32;11.50;99.90
20045;DHT22;10183;47.808;9.476;2023-08-06T09:53:00;11.50;99.90
20045;DHT22;10183;47.808;9.476;2023-08-06T09:55:26;11.50;99.90
20045;DHT22;10183;47.808;9.476;2023-08-06T09:57:53;11.50;99.90
20045;DHT22;10183;47.808;9.476;2023-08-06T10:00:21;11.50;99.90
20045;DHT22;10183;47.808;9.476;2023-08-06T10:02:48;11.50;99.90
20045;DHT22;10183;47.808;9.476;2023-08-06T10:05:16;11.70;99.90
20045;DHT22;10183;47.808;9.476;2023-08-06T10:07:43;11.80;99.90
20045;DHT22;10183;47.808;9.476;2023-08-06T10:10:11;11.80;99.90
20045;DHT22;10183;47.808;9.476;2023-08-06T10:12:43;11.80;99.90
20045;DHT22;10183;47.808;9.476;2023-08-06T10:15:13;11.80;99.90
20045;DHT22;10183;47.808;9.476;2023-08-06T10:17:42;12.00;99.90
20045;DHT22;10183;47.808;9.476;2023-08-06T10:20:10;12.10;99.90
20045;DHT22;10183;47.808;9.476;2023-08-06T10:22:43;12.00;99.90
20045;DHT22;10183;47.808;9.476;2023-08-06T10:25:10;12.00;99.90
20045;DHT22;10183;47.808;9.476;2023-08-06T10:27:54;12.00;99.90
20045;DHT22;10183;47.808;9.476;2023-08-06T10:30:31;12.00;99.90
20045;DHT22;10183;47.808;9.476;2023-08-06T10:32:59;12.10;99.90
20045;DHT22;10183;47.808;9.476;2023-08-06T10:35:44;12.20;99.90
20045;DHT22;10183;47.808;9.476;2023-08-06T10:38:18;12.20;99.90
20045;DHT22;10183;47.808;9.476;2023-08-06T10:41:01;12.10;99.90
20045;DHT22;10183;47.808;9.476;2023-08-06T10:45:55;12.20;99.90
20045;DHT22;10183;47.808;9.476;2023-08-06T10:48:41;12.10;99.90
20045;DHT22;10183;47.808;9.476;2023-08-06T10:51:10;12.20;99.90
20045;DHT22;10183;47.808;9.476;2023-08-06T10:53:37;12.30;99.90
20045;DHT22;10183;47.808;9.476;2023-08-06T10:56:16;12.30;99.90
20045;DHT22;10183;47.808;9.476;2023-08-06T10:58:46;12.40;99.90
20045;DHT22;10183;47.808;9.476;2023-08-06T11:01:13;12.30;99.90
20045;DHT22;10183;47.808;9.476;2023-08-06T11:03:39;12.40;99.90
20045;DHT22;10183;47.808;9.476;2023-08-06T11:06:09;12.60;99.90
20045;DHT22;10183;47.808;9.476;2023-08-06T11:08:40;13.10;99.90
20045;DHT22;10183;47.808;9.476;2023-08-06T11:11:11;13.60;99.90
20045;DHT22;10183;47.808;9.476;2023-08-06T11:13:40;13.70;99.90
20045;DHT22;10183;47.808;9.476;2023-08-06T11:16:06;13.80;99.90
20045;DHT22;10183;47.808;9.476;2023-08-06T11:18:33;13.70;99.90
20045;DHT22;10183;47.808;9.476;2023-08-06T11:21:00;13.50;99.90
20045;DHT22;10183;47.808;9.476;2023-08-06T11:23:27;12.80;99.90
20045;DHT22;10183;47.808;9.476;2023-08-06T11:25:57;12.90;99.90
20045;DHT22;10183;47.808;9.476;2023-08-06T11:28:24;12.60;99.90
20045;DHT22;10183;47.808;9.476;2023-08-06T11:30:51;12.60;99.90
20045;DHT22;10183;47.808;9.476;2023-08-06T11:33:21;12.40;99.90
20045;DHT22;10183;47.808;9.476;2023-08-06T11:35:49;12.50;99.90
20045;DHT22;10183;47.808;9.476;2023-08-06T11:38:15;12.60;99.90
20045;DHT22;10183;47.808;9.476;2023-08-06T11:40:44;12.60;99.90
20045;DHT22;10183;47.808;9.476;2023-08-06T11:43:12;12.70;99.90
20045;DHT22;10183;47.808;9.476;2023-08-06T11:45:38;12.90;99.90
20045;DHT22;10183;47.808;9.476;2023-08-06T11:48:06;12.90;99.90
20045;DHT22;10183;47.808;9.476;2023-08-06T11:50:37;13.10;99.90
20045;DHT22;10183;47.808;9.476;2023-08-06T11:53:06;13.00;99.90
20045;DHT22;10183;47.808;9.476;2023-08-06T11:55:33;13.10;99.90
20045;DHT22;10183;47.808;9.476;2023-08-06T11:58:03;13.00;99.90
20045;DHT22;10183;47.808;9.476;2023-08-06T12:00:32;13.00;99.90
20045;DHT22;10183;47.808;9.476;2023-08-06T12:02:59;13.00;99.90
20045;DHT22;10183;47.808;9.476;2023-08-06T12:05:31;13.00;99.90
20045;DHT22;10183;47.808;9.476;2023-08-06T12:08:00;13.30;99.90
20045;DHT22;10183;47.808;9.476;2023-08-06T12:10:29;13.10;99.90
20045;DHT22;10183;47.808;9.476;2023-08-06T12:12:55;12.80;99.90
20045;DHT22;10183;47.808;9.476;2023-08-06T12:15:22;13.00;99.90
20045;DHT22;10183;47.808;9.476;2023-08-06T12:17:48;13.10;99.90
20045;DHT22;10183;47.808;9.476;2023-08-06T12:20:15;13.10;99.90
20045;DHT22;10183;47.808;9.476;2023-08-06T12:22:41;13.20;99.90
20045;DHT22;10183;47.808;9.476;2023-08-06T12:25:09;13.60;99.90
20045;DHT22;10183;47.808;9.476;2023-08-06T12:27:41;13.60;99.90
20045;DHT22;10183;47.808;9.476;2023-08-06T12:30:08;13.60;99.90
20045;DHT22;10183;47.808;9.476;2023-08-06T12:32:34;13.30;99.90
20045;DHT22;10183;47.808;9.476;2023-08-06T12:35:01;13.40;99.90
20045;DHT22;10183;47.808;9.476;2023-08-06T12:37:28;13.30;99.90
20045;DHT22;10183;47.808;9.476;2023-08-06T12:39:54;13.60;99.90
20045;DHT22;10183;47.808;9.476;2023-08-06T12:42:23;13.50;99.90
20045;DHT22;10183;47.808;9.476;2023-08-06T12:44:50;13.30;99.90
20045;DHT22;10183;47.808;9.476;2023-08-06T12:47:17;13.20;99.90
20045;DHT22;10183;47.808;9.476;2023-08-06T12:49:44;13.30;99.90
20045;DHT22;10183;47.808;9.476;2023-08-06T12:52:10;13.20;99.90
20045;DHT22;10183;47.808;9.476;2023-08-06T12:54:38;13.00;99.90
20045;DHT22;10183;47.808;9.476;2023-08-06T12:57:05;13.00;99.90
20045;DHT22;10183;47.808;9.476;2023-08-06T12:59:31;12.90;99.90
20045;DHT22;10183;47.808;9.476;2023-08-06T13:01:59;12.90;99.90
20045;DHT22;10183;47.808;9.476;2023-08-06T13:04:25;12.90;99.90
20045;DHT22;10183;47.808;9.476;2023-08-06T13:06:52;12.80;99.90
20045;DHT22;10183;47.808;9.476;2023-08-06T13:09:18;12.80;99.90
20045;DHT22;10183;47.808;9.476;2023-08-06T13:11:45;12.80;99.90
20045;DHT22;10183;47.808;9.476;2023-08-06T13:14:13;12.70;99.90
20045;DHT22;10183;47.808;9.476;2023-08-06T13:16:41;12.70;99.90
20045;DHT22;10183;47.808;9.476;2023-08-06T13:19:07;12.70;99.90
20045;DHT22;10183;47.808;9.476;2023-08-06T13:22:00;12.60;99.90
20045;DHT22;10183;47.808;9.476;2023-08-06T13:24:28;12.50;99.90
20045;DHT22;10183;47.808;9.476;2023-08-06T13:26:55;12.30;99.90
20045;DHT22;10183;47.808;9.476;2023-08-06T13:29:21;12.20;99.90
20045;DHT22;10183;47.808;9.476;2023-08-06T13:31:47;12.10;99.90
20045;DHT22;10183;47.808;9.476;2023-08-06T13:34:14;12.00;99.90
20045;DHT22;10183;47.808;9.476;2023-08-06T13:36:42;11.90;99.90
20045;DHT22;10183;47.808;9.476;2023-08-06T13:39:09;11.80;99.90
20045;DHT22;10183;47.808;9.476;2023-08-06T13:41:35;11.80;99.90
20045;DHT22;10183;47.808;9.476;2023-08-06T13:44:01;11.90;99.90
20045;DHT22;10183;47.808;9.476;2023-08-06T13:46:27;11.80;99.90
20045;DHT22;10183;47.808;9.476;2023-08-06T13:48:53;11.80;99.90
20045;DHT22;10183;47.808;9.476;2023-08-06T13:51:20;11.70;99.90
20045;DHT22;10183;47.808;9.476;2023-08-06T13:53:46;11.70;99.90
20045;DHT22;10183;47.808;9.476;2023-08-06T13:56:12;11.70;99.90
20045;DHT22;10183;47.808;9.476;2023-08-06T13:58:41;11.70;99.90
20045;DHT22;10183;47.808;9.476;2023-08-06T14:01:10;11.70;99.90
20045;DHT22;10183;47.808;9.476;2023-08-06T14:03:36;11.70;99.90
20045;DHT22;10183;47.808;9.476;2023-08-06T14:06:03;11.80;99.90
20045;DHT22;10183;47.808;9.476;2023-08-06T14:08:29;11.90;99.90
20045;DHT22;10183;47.808;9.476;2023-08-06T14:10:55;12.10;99.90
20045;DHT22;10183;47.808;9.476;2023-08-06T14:13:22;12.20;99.90
20045;DHT22;10183;47.808;9.476;2023-08-06T14:15:48;12.50;99.90
20045;DHT22;10183;47.808;9.476;2023-08-06T14:18:16;13.00;99.90
20045;DHT22;10183;47.808;9.476;2023-08-06T14:20:42;14.00;99.90
20045;DHT22;10183;47.808;9.476;2023-08-06T14:23:09;15.30;99.90
20045;DHT22;10183;47.808;9.476;2023-08-06T14:25:37;14.60;99.90
20045;DHT22;10183;47.808;9.476;2023-08-06T14:28:04;14.30;99.90
20045;DHT22;10183;47.808;9.476;2023-08-06T14:30:32;13.50;99.90
20045;DHT22;10183;47.808;9.476;2023-08-06T14:32:59;13.50;99.90
20045;DHT22;10183;47.808;9.476;2023-08-06T14:35:29;13.40;99.90
20045;DHT22;10183;47.808;9.476;2023-08-06T14:37:55;13.60;99.90
20045;DHT22;10183;47.808;9.476;2023-08-06T14:40:21;13.90;99.90
20045;DHT22;10183;47.808;9.476;2023-08-06T14:42:47;14.00;99.90
20045;DHT22;10183;47.808;9.476;2023-08-06T14:45:13;13.50;99.90
20045;DHT22;10183;47.808;9.476;2023-08-06T14:47:40;13.40;99.90
20045;DHT22;10183;47.808;9.476;2023-08-06T14:50:06;13.50;99.90
20045;DHT22;10183;47.808;9.476;2023-08-06T14:52:32;13.50;99.90
20045;DHT22;10183;47.808;9.476;2023-08-06T14:55:00;13.40;99.90
20045;DHT22;10183;47.808;9.476;2023-08-06T14:57:32;13.20;99.90
20045;DHT22;10183;47.808;9.476;2023-08-06T14:59:59;12.70;99.90
20045;DHT22;10183;47.808;9.476;2023-08-06T15:02:26;12.40;99.90
20045;DHT22;10183;47.808;9.476;2023-08-06T15:04:53;12.20;99.90
20045;DHT22;10183;47.808;9.476;2023-08-06T15:07:19;11.90;99.90
20045;DHT22;10183;47.808;9.476;2023-08-06T15:09:45;11.90;99.90
20045;DHT22;10183;47.808;9.476;2023-08-06T15:12:11;13.50;99.90
20045;DHT22;10183;47.808;9.476;2023-08-06T15:14:38;14.80;99.90
20045;DHT22;10183;47.808;9.476;2023-08-06T15:17:04;15.60;99.90
20045;DHT22;10183;47.808;9.476;2023-08-06T15:19:31;16.70;99.90
20045;DHT22;10183;47.808;9.476;2023-08-06T15:21:57;17.50;99.90
20045;DHT22;10183;47.808;9.476;2023-08-06T15:24:23;17.10;99.90
20045;DHT22;10183;47.808;9.476;2023-08-06T15:26:49;16.20;99.90
20045;DHT22;10183;47.808;9.476;2023-08-06T15:29:15;15.80;99.90
20045;DHT22;10183;47.808;9.476;2023-08-06T15:31:41;14.80;99.90
20045;DHT22;10183;47.808;9.476;2023-08-06T15:34:07;14.90;99.90
20045;DHT22;10183;47.808;9.476;2023-08-06T15:36:34;14.70;99.90
20045;DHT22;10183;47.808;9.476;2023-08-06T15:39:01;14.90;99.90
20045;DHT22;10183;47.808;9.476;2023-08-06T15:41:28;15.70;99.90
20045;DHT22;10183;47.808;9.476;2023-08-06T15:43:54;16.20;99.90